createdAt,value
2023-02-04T00:00:37.363Z,100956.91
2023-02-04T00:01:40.102Z,100971.00
2023-02-04T00:02:42.725Z,100986.03
2023-02-04T00:03:44.918Z,100999.22
2023-02-04T00:04:47.294Z,100984.22
2023-02-04T00:05:49.846Z,101000.97
2023-02-04T00:06:52.256Z,101000.97
2023-02-04T00:07:54.406Z,101013.28
2023-02-04T00:08:56.777Z,101003.63
2023-02-04T00:09:59.262Z,101020.41
2023-02-04T00:11:01.457Z,101023.94
2023-02-04T00:12:03.873Z,101010.72
2023-02-04T00:13:06.070Z,101001.00
2023-02-04T00:14:08.356Z,100999.22
2023-02-04T00:15:11.147Z,101008.97
2023-02-04T00:16:13.421Z,101016.03
2023-02-04T00:17:15.989Z,101031.88
2023-02-04T00:18:18.133Z,101023.97
2023-02-04T00:19:20.374Z,101023.09
2023-02-04T00:20:23.252Z,101041.63
2023-02-04T00:21:25.412Z,101041.56
2023-02-04T00:22:29.074Z,101033.63
2023-02-04T00:23:31.569Z,101054.78
2023-02-04T00:24:37.875Z,101050.34
2023-02-04T00:25:40.057Z,101066.28
2023-02-04T00:26:42.220Z,101056.59
2023-02-04T00:27:44.429Z,101054.84
2023-02-04T00:28:46.887Z,101066.28
2023-02-04T00:29:49.278Z,101079.53
2023-02-04T00:30:51.473Z,101077.75
2023-02-04T00:31:53.732Z,101083.00
2023-02-04T00:32:56.959Z,101092.72
2023-02-04T00:33:59.776Z,101081.28
2023-02-04T00:35:04.844Z,101094.53
2023-02-04T00:36:07.452Z,101083.03
2023-02-04T00:37:09.728Z,101093.63
2023-02-04T00:38:13.510Z,101115.69
2023-02-04T00:39:16.187Z,101094.53
2023-02-04T00:40:18.642Z,101096.28
2023-02-04T00:41:20.810Z,101110.41
2023-02-04T00:42:23.241Z,101119.25
2023-02-04T00:43:25.471Z,101119.22
2023-02-04T00:44:27.739Z,101122.75
2023-02-04T00:45:30.202Z,101122.75
2023-02-04T00:46:32.454Z,101124.53
2023-02-04T00:47:34.753Z,101129.81
2023-02-04T00:48:36.960Z,101132.44
2023-02-04T00:49:39.203Z,101132.44
2023-02-04T00:50:41.770Z,101151.00
2023-02-04T00:51:46.626Z,101151.88
2023-02-04T00:52:49.268Z,101153.66
2023-02-04T00:53:51.492Z,101155.41
2023-02-04T00:54:53.743Z,101161.59
2023-02-04T00:55:56.192Z,101169.53
2023-02-04T00:56:58.462Z,101184.53
2023-02-04T00:58:00.957Z,101172.19
2023-02-04T00:59:03.557Z,101169.53
2023-02-04T01:00:06.537Z,101198.66
2023-02-04T01:01:09.060Z,101193.34
2023-02-04T01:02:11.520Z,101196.88
2023-02-04T01:03:13.771Z,101211.88
2023-02-04T01:04:16.224Z,101207.47
2023-02-04T01:05:19.436Z,101224.22
2023-02-04T01:06:22.066Z,101233.06
2023-02-04T01:07:24.640Z,101236.59
2023-02-04T01:08:28.316Z,101233.03
2023-02-04T01:09:30.732Z,101239.25
2023-02-04T01:10:33.691Z,101243.66
2023-02-04T01:11:36.657Z,101243.66
2023-02-04T01:12:38.935Z,101275.41
2023-02-04T01:13:41.308Z,101265.69
2023-02-04T01:14:43.865Z,101278.91
2023-02-04T01:15:47.095Z,101293.00
2023-02-04T01:16:50.303Z,101280.66
2023-02-04T01:17:52.852Z,101287.72
2023-02-04T01:18:55.976Z,101293.00
2023-02-04T01:19:59.799Z,101319.47
2023-02-04T01:21:02.006Z,101308.88
2023-02-04T01:22:04.188Z,101325.56
2023-02-04T01:23:07.878Z,101332.63
2023-02-04T01:24:10.051Z,101343.22
2023-02-04T01:25:32.346Z,101345.00
2023-02-04T01:26:35.439Z,101359.94
2023-02-04T01:27:37.787Z,101330.81
2023-02-04T01:28:40.238Z,101347.63
2023-02-04T01:29:42.464Z,101371.41
2023-02-04T01:30:46.035Z,101370.50
2023-02-04T01:31:48.739Z,101363.34
2023-02-04T01:32:50.980Z,101380.09
2023-02-04T01:33:53.358Z,101387.22
2023-02-04T01:34:57.197Z,101388.06
2023-02-04T01:36:00.134Z,101387.16
2023-02-04T01:37:02.310Z,101396.03
2023-02-04T01:38:04.546Z,101405.66
2023-02-04T01:39:06.932Z,101406.53
2023-02-04T01:40:10.910Z,101405.66
2023-02-04T01:41:13.965Z,101403.03
2023-02-04T01:42:17.448Z,101414.56
2023-02-04T01:43:22.390Z,101408.41
2023-02-04T01:44:24.976Z,101421.66
2023-02-04T01:45:28.241Z,101423.50
2023-02-04T01:46:34.590Z,101428.81
2023-02-04T01:47:39.326Z,101455.22
2023-02-04T01:48:41.751Z,101438.28
2023-02-04T01:49:44.608Z,101452.38
2023-02-04T01:50:52.539Z,101446.25
2023-02-04T01:51:55.315Z,101486.81
2023-02-04T01:52:58.099Z,101469.09
2023-02-04T01:54:00.579Z,101460.34
2023-02-04T01:55:02.956Z,101465.66
2023-02-04T01:56:20.550Z,101466.63
2023-02-04T01:57:23.221Z,101464.03
2023-02-04T01:58:25.593Z,101481.69
2023-02-04T01:59:27.965Z,101486.06
2023-02-04T02:00:33.356Z,101488.72
2023-02-04T02:01:54.538Z,101486.03
2023-02-04T02:02:57.080Z,101499.97
2023-02-04T02:04:00.343Z,101506.97
2023-02-04T02:05:02.601Z,101492.94
2023-02-04T02:06:06.033Z,101498.22
2023-02-04T02:07:10.114Z,101503.47
2023-02-04T02:08:13.975Z,101522.78
2023-02-04T02:09:16.952Z,101517.59
2023-02-04T02:10:19.992Z,101522.91
2023-02-04T02:11:22.204Z,101527.34
2023-02-04T02:12:24.806Z,101522.03
2023-02-04T02:13:27.109Z,101520.41
2023-02-04T02:14:29.892Z,101518.66
2023-02-04T02:15:33.033Z,101534.50
2023-02-04T02:16:35.320Z,101545.09
2023-02-04T02:17:38.023Z,101545.91
2023-02-04T02:18:40.921Z,101542.38
2023-02-04T02:19:43.620Z,101547.66
2023-02-04T02:20:46.277Z,101552.09
2023-02-04T02:22:03.484Z,101551.25
2023-02-04T02:23:28.776Z,101556.50
2023-02-04T02:24:33.664Z,101548.50
2023-02-04T02:25:36.460Z,101565.25
2023-02-04T02:26:38.920Z,101566.16
2023-02-04T02:27:41.943Z,101564.47
2023-02-04T02:28:45.823Z,101576.88
2023-02-04T02:29:48.053Z,101573.34
2023-02-04T02:30:50.858Z,101586.44
2023-02-04T02:31:54.443Z,101583.84
2023-02-04T02:32:57.768Z,101590.94
2023-02-04T02:33:59.963Z,101588.31
2023-02-04T02:35:02.489Z,101596.22
2023-02-04T02:36:05.182Z,101596.13
2023-02-04T02:37:11.420Z,101596.97
2023-02-04T02:38:14.319Z,101605.06
2023-02-04T02:39:16.784Z,101608.56
2023-02-04T02:40:19.848Z,101602.41
2023-02-04T02:41:22.112Z,101605.97
2023-02-04T02:42:26.111Z,101607.84
2023-02-04T02:43:30.927Z,101611.31
2023-02-04T02:44:33.553Z,101609.41
2023-02-04T02:45:35.995Z,101617.28
2023-02-04T02:46:38.496Z,101621.78
2023-02-04T02:47:40.899Z,101625.28
2023-02-04T02:48:43.304Z,101633.97
2023-02-04T02:49:50.135Z,101638.31
2023-02-04T02:50:52.904Z,101645.25
2023-02-04T02:51:56.929Z,101640.84
2023-02-04T02:52:59.529Z,101651.41
2023-02-04T02:54:01.754Z,101646.91
2023-02-04T02:55:04.313Z,101657.44
2023-02-04T02:56:06.816Z,101654.81
2023-02-04T02:57:16.228Z,101659.28
2023-02-04T02:58:26.933Z,101663.81
2023-02-04T02:59:29.218Z,101671.88
2023-02-04T03:00:31.721Z,101668.38
2023-02-04T03:01:34.339Z,101690.06
2023-02-04T03:02:36.761Z,101683.19
2023-02-04T03:03:44.288Z,101690.38
2023-02-04T03:04:52.748Z,101690.28
2023-02-04T03:06:04.446Z,101693.06
2023-02-04T03:07:07.628Z,101697.44
2023-02-04T03:08:12.296Z,101699.28
2023-02-04T03:09:14.800Z,101706.44
2023-02-04T03:10:18.528Z,101706.47
2023-02-04T03:11:20.967Z,101704.75
2023-02-04T03:12:23.655Z,101716.94
2023-02-04T03:13:26.112Z,101707.19
2023-02-04T03:14:28.756Z,101722.88
2023-02-04T03:15:31.788Z,101716.69
2023-02-04T03:16:36.836Z,101730.81
2023-02-04T03:17:39.671Z,101738.66
2023-02-04T03:18:42.163Z,101726.28
2023-02-04T03:19:46.663Z,101734.31
2023-02-04T03:20:51.347Z,101742.81
2023-02-04T03:21:56.130Z,101739.31
2023-02-04T03:22:59.301Z,101748.31
2023-02-04T03:24:01.581Z,101744.75
2023-02-04T03:25:04.201Z,101763.09
2023-02-04T03:26:07.048Z,101755.97
2023-02-04T03:27:09.284Z,101774.38
2023-02-04T03:28:11.756Z,101765.63
2023-02-04T03:29:14.235Z,101776.22
2023-02-04T03:30:16.685Z,101776.25
2023-02-04T03:31:19.052Z,101779.91
2023-02-04T03:32:21.520Z,101783.59
2023-02-04T03:33:26.215Z,101783.50
2023-02-04T03:34:28.641Z,101797.63
2023-02-04T03:35:31.022Z,101801.81
2023-02-04T03:36:33.507Z,101799.41
2023-02-04T03:37:35.759Z,101798.63
2023-02-04T03:38:37.965Z,101809.16
2023-02-04T03:39:40.539Z,101808.19
2023-02-04T03:40:48.273Z,101811.81
2023-02-04T03:41:50.443Z,101813.34
2023-02-04T03:42:52.635Z,101813.47
2023-02-04T03:43:54.786Z,101809.13
2023-02-04T03:44:57.522Z,101822.25
2023-02-04T03:45:59.724Z,101813.56
2023-02-04T03:47:01.911Z,101825.88
2023-02-04T03:48:04.589Z,101820.59
2023-02-04T03:49:06.759Z,101833.75
2023-02-04T03:50:12.535Z,101826.59
2023-02-04T03:51:14.711Z,101831.16
2023-02-04T03:52:16.985Z,101837.38
2023-02-04T03:53:20.038Z,101839.72
2023-02-04T03:54:22.380Z,101845.22
2023-02-04T03:55:26.487Z,101846.94
2023-02-04T03:56:28.783Z,101844.34
2023-02-04T03:57:30.949Z,101845.19
2023-02-04T03:58:33.410Z,101860.06
2023-02-04T03:59:35.638Z,101867.88
2023-02-04T04:00:38.015Z,101857.91
2023-02-04T04:01:40.229Z,101872.06
2023-02-04T04:02:42.480Z,101869.50
2023-02-04T04:03:44.797Z,101870.50
2023-02-04T04:04:47.052Z,101868.50
2023-02-04T04:05:49.460Z,101873.66
2023-02-04T04:06:51.804Z,101881.78
2023-02-04T04:07:53.964Z,101886.22
2023-02-04T04:08:56.375Z,101890.59
2023-02-04T04:09:58.539Z,101894.00
2023-02-04T04:11:00.808Z,101907.28
2023-02-04T04:12:04.531Z,101906.22
2023-02-04T04:13:06.747Z,101907.97
2023-02-04T04:14:09.092Z,101917.78
2023-02-04T04:15:11.707Z,101910.47
2023-02-04T04:16:13.910Z,101919.28
2023-02-04T04:17:16.330Z,101930.69
2023-02-04T04:18:19.465Z,101930.75
2023-02-04T04:19:21.694Z,101929.47
2023-02-04T04:20:25.748Z,101929.56
2023-02-04T04:21:27.903Z,101930.50
2023-02-04T04:22:30.392Z,101941.06
2023-02-04T04:23:32.633Z,101936.69
2023-02-04T04:24:34.887Z,101933.16
2023-02-04T04:25:37.453Z,101944.75
2023-02-04T04:26:39.643Z,101947.34
2023-02-04T04:27:41.829Z,101948.72
2023-02-04T04:28:44.266Z,101959.38
2023-02-04T04:29:46.418Z,101959.44
2023-02-04T04:30:48.838Z,101965.63
2023-02-04T04:31:51.071Z,101964.66
2023-02-04T04:32:53.297Z,101971.72
2023-02-04T04:33:55.734Z,101975.94
2023-02-04T04:34:57.973Z,101975.13
2023-02-04T04:36:00.576Z,101977.56
2023-02-04T04:37:02.766Z,101976.69
2023-02-04T04:38:04.996Z,101985.56
2023-02-04T04:39:07.445Z,101984.72
2023-02-04T04:40:12.664Z,101990.97
2023-02-04T04:41:15.072Z,101993.47
2023-02-04T04:42:17.281Z,101995.84
2023-02-04T04:43:19.676Z,102002.38
2023-02-04T04:44:22.516Z,101997.28
2023-02-04T04:45:24.805Z,102005.25
2023-02-04T04:46:27.214Z,102009.72
2023-02-04T04:47:29.511Z,102012.47
2023-02-04T04:48:31.699Z,102016.72
2023-02-04T04:49:33.889Z,102019.38
2023-02-04T04:50:36.118Z,102022.13
2023-02-04T04:51:38.550Z,102028.22
2023-02-04T04:52:40.761Z,102031.81
2023-02-04T04:53:42.918Z,102033.53
2023-02-04T04:54:45.163Z,102034.41
2023-02-04T04:55:47.518Z,102033.50
2023-02-04T04:56:49.888Z,102043.22
2023-02-04T04:57:52.119Z,102047.75
2023-02-04T04:58:54.266Z,102051.97
2023-02-04T04:59:56.505Z,102055.53
2023-02-04T05:00:58.934Z,102067.03
2023-02-04T05:02:01.312Z,102059.09
2023-02-04T05:03:03.582Z,102064.34
2023-02-04T05:04:05.939Z,102066.00
2023-02-04T05:05:08.354Z,102072.28
2023-02-04T05:06:11.722Z,102078.28
2023-02-04T05:07:13.921Z,102074.63
2023-02-04T05:08:17.037Z,102076.44
2023-02-04T05:09:19.465Z,102071.16
2023-02-04T05:10:21.701Z,102071.16
2023-02-04T05:11:24.245Z,102085.38
2023-02-04T05:12:26.457Z,102080.91
2023-02-04T05:13:28.946Z,102081.69
2023-02-04T05:14:31.452Z,102091.31
2023-02-04T05:15:34.076Z,102097.50
2023-02-04T05:16:36.338Z,102094.00
2023-02-04T05:17:38.632Z,102100.09
2023-02-04T05:18:41.608Z,102101.88
2023-02-04T05:19:44.226Z,102096.50
2023-02-04T05:20:46.448Z,102099.09
2023-02-04T05:21:48.799Z,102104.94
2023-02-04T05:22:51.068Z,102101.38
2023-02-04T05:23:53.218Z,102110.13
2023-02-04T05:24:55.395Z,102111.84
2023-02-04T05:25:57.775Z,102118.72
2023-02-04T05:27:00.126Z,102125.72
2023-02-04T05:28:02.397Z,102128.25
2023-02-04T05:29:04.595Z,102133.34
2023-02-04T05:30:07.354Z,102133.34
2023-02-04T05:31:09.681Z,102143.00
2023-02-04T05:32:12.475Z,102148.28
2023-02-04T05:33:14.942Z,102156.13
2023-02-04T05:34:17.308Z,102161.38
2023-02-04T05:35:19.836Z,102147.34
2023-02-04T05:36:22.243Z,102154.31
2023-02-04T05:37:24.853Z,102162.22
2023-02-04T05:38:27.010Z,102163.88
2023-02-04T05:39:29.374Z,102161.03
2023-02-04T05:40:31.841Z,102173.53
2023-02-04T05:41:34.233Z,102181.47
2023-02-04T05:42:36.791Z,102176.00
2023-02-04T05:43:39.848Z,102180.44
2023-02-04T05:44:42.203Z,102181.16
2023-02-04T05:45:44.375Z,102180.09
2023-02-04T05:46:46.592Z,102182.81
2023-02-04T05:47:48.804Z,102189.06
2023-02-04T05:48:51.072Z,102195.19
2023-02-04T05:49:53.270Z,102194.38
2023-02-04T05:50:55.495Z,102197.03
2023-02-04T05:51:57.769Z,102195.22
2023-02-04T05:52:59.954Z,102204.84
2023-02-04T05:54:02.220Z,102205.69
2023-02-04T05:55:05.269Z,102201.19
2023-02-04T05:56:07.609Z,102201.19
2023-02-04T05:57:09.998Z,102202.09
2023-02-04T05:58:12.202Z,102204.63
2023-02-04T05:59:14.468Z,102209.88
2023-02-04T06:00:17.031Z,102209.88
2023-02-04T06:01:19.216Z,102214.34
2023-02-04T06:02:21.403Z,102213.53
2023-02-04T06:03:23.607Z,102214.34
2023-02-04T06:04:25.845Z,102220.41
2023-02-04T06:05:28.496Z,102228.25
2023-02-04T06:06:30.906Z,102224.75
2023-02-04T06:07:33.300Z,102230.97
2023-02-04T06:08:35.923Z,102233.69
2023-02-04T06:09:38.088Z,102233.69
2023-02-04T06:10:40.241Z,102241.50
2023-02-04T06:11:42.736Z,102244.16
2023-02-04T06:12:45.135Z,102233.59
2023-02-04T06:13:47.312Z,102247.56
2023-02-04T06:14:49.693Z,102246.78
2023-02-04T06:15:51.936Z,102244.97
2023-02-04T06:16:54.331Z,102248.59
2023-02-04T06:17:56.844Z,102261.94
2023-02-04T06:18:59.065Z,102255.84
2023-02-04T06:20:01.682Z,102260.28
2023-02-04T06:21:04.771Z,102260.22
2023-02-04T06:22:07.148Z,102266.34
2023-02-04T06:23:09.551Z,102267.31
2023-02-04T06:24:11.793Z,102271.56
2023-02-04T06:25:14.221Z,102274.25
2023-02-04T06:26:16.436Z,102274.22
2023-02-04T06:27:23.256Z,102270.72
2023-02-04T06:28:26.048Z,102278.84
2023-02-04T06:29:28.194Z,102273.63
2023-02-04T06:30:30.899Z,102277.97
2023-02-04T06:31:33.598Z,102286.03
2023-02-04T06:32:35.813Z,102283.47
2023-02-04T06:33:38.466Z,102285.19
2023-02-04T06:34:40.732Z,102283.56
2023-02-04T06:35:43.125Z,102293.22
2023-02-04T06:36:45.292Z,102288.94
2023-02-04T06:37:47.809Z,102284.44
2023-02-04T06:38:50.013Z,102287.22
2023-02-04T06:39:54.480Z,102289.81
2023-02-04T06:40:56.783Z,102300.22
2023-02-04T06:41:58.945Z,102295.78
2023-02-04T06:43:01.801Z,102297.44
2023-02-04T06:44:04.847Z,102301.75
2023-02-04T06:45:07.403Z,102299.91
2023-02-04T06:46:12.511Z,102300.66
2023-02-04T06:47:14.720Z,102298.97
2023-02-04T06:48:17.327Z,102301.22
2023-02-04T06:49:19.536Z,102300.44
2023-02-04T06:50:21.723Z,102304.06
2023-02-04T06:51:23.898Z,102307.53
2023-02-04T06:52:26.269Z,102307.59
2023-02-04T06:53:28.637Z,102303.91
2023-02-04T06:54:30.812Z,102309.34
2023-02-04T06:55:33.162Z,102308.47
2023-02-04T06:56:35.347Z,102311.94
2023-02-04T06:57:37.739Z,102314.56
2023-02-04T06:58:40.163Z,102318.13
2023-02-04T06:59:43.705Z,102313.75
2023-02-04T07:00:46.091Z,102312.03
2023-02-04T07:01:48.298Z,102316.38
2023-02-04T07:02:50.931Z,102317.25
2023-02-04T07:03:53.305Z,102317.22
2023-02-04T07:04:55.520Z,102317.25
2023-02-04T07:05:58.195Z,102320.63
2023-02-04T07:07:03.614Z,102314.56
2023-02-04T07:08:06.404Z,102329.63
2023-02-04T07:09:08.940Z,102329.63
2023-02-04T07:10:11.095Z,102321.66
2023-02-04T07:11:13.444Z,102330.41
2023-02-04T07:12:16.435Z,102329.53
2023-02-04T07:13:18.658Z,102332.16
2023-02-04T07:14:21.298Z,102326.97
2023-02-04T07:15:23.475Z,102338.38
2023-02-04T07:16:25.856Z,102332.16
2023-02-04T07:17:28.056Z,102332.88
2023-02-04T07:18:30.252Z,102342.63
2023-02-04T07:19:33.940Z,102340.13
2023-02-04T07:20:36.325Z,102337.25
2023-02-04T07:21:38.484Z,102341.66
2023-02-04T07:22:41.219Z,102339.06
2023-02-04T07:23:43.582Z,102352.44
2023-02-04T07:24:45.994Z,102352.63
2023-02-04T07:25:49.144Z,102349.31
2023-02-04T07:26:51.610Z,102356.41
2023-02-04T07:27:54.007Z,102351.09
2023-02-04T07:28:56.256Z,102349.22
2023-02-04T07:29:58.456Z,102355.34
2023-02-04T07:31:00.721Z,102363.38
2023-02-04T07:32:03.085Z,102356.44
2023-02-04T07:33:05.586Z,102362.50
2023-02-04T07:34:08.042Z,102364.38
2023-02-04T07:35:11.780Z,102358.03
2023-02-04T07:36:15.324Z,102366.72
2023-02-04T07:37:17.750Z,102365.06
2023-02-04T07:38:20.554Z,102366.28
2023-02-04T07:39:23.162Z,102369.97
2023-02-04T07:40:25.348Z,102363.94
2023-02-04T07:41:27.767Z,102367.50
2023-02-04T07:42:29.938Z,102365.06
2023-02-04T07:43:40.529Z,102369.63
2023-02-04T07:44:43.300Z,102367.72
2023-02-04T07:45:45.542Z,102369.41
2023-02-04T07:46:47.877Z,102370.44
2023-02-04T07:47:50.093Z,102380.91
2023-02-04T07:48:52.517Z,102372.09
2023-02-04T07:49:57.216Z,102377.34
2023-02-04T07:50:59.480Z,102379.09
2023-02-04T07:52:01.667Z,102379.22
2023-02-04T07:53:04.019Z,102381.06
2023-02-04T07:54:06.215Z,102386.41
2023-02-04T07:55:09.234Z,102385.56
2023-02-04T07:56:11.521Z,102390.03
2023-02-04T07:57:13.724Z,102390.03
2023-02-04T07:58:16.075Z,102389.09
2023-02-04T07:59:18.246Z,102394.16
2023-02-04T08:00:21.171Z,102395.97
2023-02-04T08:01:23.319Z,102399.44
2023-02-04T08:02:25.782Z,102397.50
2023-02-04T08:03:28.423Z,102400.97
2023-02-04T08:04:30.691Z,102405.38
2023-02-04T08:05:33.152Z,102405.22
2023-02-04T08:06:35.392Z,102400.25
2023-02-04T08:07:37.608Z,102418.13
2023-02-04T08:08:40.014Z,102407.69
2023-02-04T08:09:42.396Z,102409.81
2023-02-04T08:10:44.559Z,102419.13
2023-02-04T08:11:47.634Z,102421.44
2023-02-04T08:12:49.826Z,102425.47
2023-02-04T08:13:52.226Z,102423.94
2023-02-04T08:14:54.585Z,102429.50
2023-02-04T08:15:56.830Z,102429.91
2023-02-04T08:16:59.358Z,102430.81
2023-02-04T08:18:01.600Z,102435.25
2023-02-04T08:19:04.370Z,102432.56
2023-02-04T08:20:07.112Z,102441.31
2023-02-04T08:21:09.277Z,102438.00
2023-02-04T08:22:12.554Z,102441.47
2023-02-04T08:23:14.738Z,102445.81
2023-02-04T08:24:16.943Z,102449.41
2023-02-04T08:25:19.515Z,102450.47
2023-02-04T08:26:21.788Z,102442.09
2023-02-04T08:27:24.179Z,102448.66
2023-02-04T08:28:26.472Z,102456.97
2023-02-04T08:29:28.713Z,102458.00
2023-02-04T08:30:31.388Z,102456.47
2023-02-04T08:31:34.190Z,102449.38
2023-02-04T08:32:36.663Z,102461.00
2023-02-04T08:33:39.843Z,102453.38
2023-02-04T08:34:42.045Z,102450.91
2023-02-04T08:35:44.502Z,102461.59
2023-02-04T08:36:46.739Z,102454.41
2023-02-04T08:37:49.030Z,102458.94
2023-02-04T08:38:51.351Z,102455.06
2023-02-04T08:39:53.552Z,102460.00
2023-02-04T08:40:55.919Z,102465.78
2023-02-04T08:41:58.137Z,102462.19
2023-02-04T08:43:00.285Z,102468.09
2023-02-04T08:44:03.065Z,102472.22
2023-02-04T08:45:05.462Z,102474.72
2023-02-04T08:46:07.956Z,102475.91
2023-02-04T08:47:10.340Z,102477.03
2023-02-04T08:48:12.490Z,102483.34
2023-02-04T08:49:14.841Z,102483.31
2023-02-04T08:50:17.492Z,102483.41
2023-02-04T08:51:19.698Z,102486.09
2023-02-04T08:52:22.109Z,102493.28
2023-02-04T08:53:24.347Z,102490.84
2023-02-04T08:54:26.880Z,102496.09
2023-02-04T08:55:29.252Z,102492.56
2023-02-04T08:56:31.528Z,102500.63
2023-02-04T08:57:35.017Z,102502.50
2023-02-04T08:58:37.219Z,102500.19
2023-02-04T08:59:39.415Z,102502.97
2023-02-04T09:00:42.054Z,102500.63
2023-02-04T09:01:51.014Z,102499.88
2023-02-04T09:02:53.655Z,102503.06
2023-02-04T09:03:55.837Z,102506.03
2023-02-04T09:04:58.011Z,102504.88
2023-02-04T09:06:00.586Z,102503.75
2023-02-04T09:07:02.896Z,102505.47
2023-02-04T09:08:15.676Z,102513.38
2023-02-04T09:09:18.268Z,102507.22
2023-02-04T09:10:20.463Z,102504.03
2023-02-04T09:11:22.900Z,102504.16
2023-02-04T09:12:25.086Z,102517.34
2023-02-04T09:13:27.456Z,102503.38
2023-02-04T09:14:29.861Z,102511.47
2023-02-04T09:15:32.028Z,102518.69
2023-02-04T09:16:34.787Z,102513.38
2023-02-04T09:17:37.649Z,102512.66
2023-02-04T09:18:40.510Z,102519.78
2023-02-04T09:19:42.876Z,102520.84
2023-02-04T09:20:45.572Z,102517.53
2023-02-04T09:21:47.924Z,102528.34
2023-02-04T09:22:50.327Z,102530.19
2023-02-04T09:23:52.497Z,102535.72
2023-02-04T09:24:54.691Z,102535.00
2023-02-04T09:25:57.188Z,102523.19
2023-02-04T09:26:59.521Z,102532.53
2023-02-04T09:28:01.938Z,102528.16
2023-02-04T09:29:04.117Z,102531.69
2023-02-04T09:30:06.887Z,102535.97
2023-02-04T09:31:09.254Z,102530.66
2023-02-04T09:32:11.535Z,102534.97
2023-02-04T09:33:16.854Z,102539.28
2023-02-04T09:34:19.108Z,102534.03
2023-02-04T09:35:21.326Z,102541.91
2023-02-04T09:36:28.590Z,102535.03
2023-02-04T09:37:30.771Z,102537.06
2023-02-04T09:38:33.180Z,102531.81
2023-02-04T09:39:35.353Z,102540.50
2023-02-04T09:40:42.417Z,102543.84
2023-02-04T09:41:44.626Z,102540.88
2023-02-04T09:42:49.848Z,102541.66
2023-02-04T09:43:52.390Z,102544.88
2023-02-04T09:44:54.663Z,102544.97
2023-02-04T09:45:58.521Z,102543.41
2023-02-04T09:47:01.691Z,102543.56
2023-02-04T09:48:05.824Z,102547.94
2023-02-04T09:49:10.131Z,102553.44
2023-02-04T09:50:17.633Z,102550.06
2023-02-04T09:51:23.839Z,102557.31
2023-02-04T09:52:28.330Z,102552.25
2023-02-04T09:53:31.657Z,102552.38
2023-02-04T09:54:34.157Z,102559.31
2023-02-04T09:55:39.383Z,102550.50
2023-02-04T09:56:42.223Z,102558.97
2023-02-04T09:57:44.842Z,102562.31
2023-02-04T09:58:47.323Z,102565.66
2023-02-04T09:59:51.423Z,102562.84
2023-02-04T10:01:00.118Z,102566.38
2023-02-04T10:02:11.716Z,102564.75
2023-02-04T10:03:19.162Z,102562.84
2023-02-04T10:04:22.860Z,102570.88
2023-02-04T10:05:29.325Z,102570.94
2023-02-04T10:06:31.932Z,102569.41
2023-02-04T10:07:35.288Z,102567.34
2023-02-04T10:08:37.459Z,102566.25
2023-02-04T10:09:40.829Z,102569.06
2023-02-04T10:10:45.058Z,102571.00
2023-02-04T10:11:48.607Z,102568.56
2023-02-04T10:12:55.518Z,102574.00
2023-02-04T10:13:57.746Z,102568.78
2023-02-04T10:15:00.560Z,102584.75
2023-02-04T10:16:11.374Z,102580.19
2023-02-04T10:17:16.649Z,102577.34
2023-02-04T10:18:34.271Z,102585.56
2023-02-04T10:19:36.517Z,102576.06
2023-02-04T10:20:38.775Z,102582.25
2023-02-04T10:21:47.491Z,102583.19
2023-02-04T10:22:52.965Z,102583.94
2023-02-04T10:23:57.778Z,102584.72
2023-02-04T10:25:00.122Z,102584.59
2023-02-04T10:26:03.599Z,102588.06
2023-02-04T10:27:10.955Z,102583.69
2023-02-04T10:28:13.555Z,102580.81
2023-02-04T10:29:20.784Z,102582.47
2023-02-04T10:30:25.770Z,102589.63
2023-02-04T10:31:33.030Z,102591.38
2023-02-04T10:32:35.460Z,102587.91
2023-02-04T10:33:39.085Z,102591.34
2023-02-04T10:34:41.281Z,102599.16
2023-02-04T10:35:46.554Z,102590.59
2023-02-04T10:36:55.464Z,102593.34
2023-02-04T10:38:07.891Z,102594.34
2023-02-04T10:39:20.841Z,102590.06
2023-02-04T10:40:41.806Z,102598.00
2023-02-04T10:41:49.814Z,102593.75
2023-02-04T10:42:53.476Z,102594.47
2023-02-04T10:44:07.189Z,102590.13
2023-02-04T10:45:22.981Z,102589.00
2023-02-04T10:46:25.363Z,102598.72
2023-02-04T10:47:31.200Z,102595.16
2023-02-04T10:48:41.788Z,102599.47
2023-02-04T10:50:07.656Z,102592.81
2023-02-04T10:51:13.539Z,102597.44
2023-02-04T10:52:18.014Z,102597.69
2023-02-04T10:53:41.528Z,102596.09
2023-02-04T10:54:44.160Z,102596.25
2023-02-04T10:55:49.026Z,102597.22
2023-02-04T10:56:51.250Z,102596.09
2023-02-04T10:57:53.729Z,102602.03
2023-02-04T10:58:56.281Z,102601.16
2023-02-04T11:00:01.332Z,102598.50
2023-02-04T11:01:03.972Z,102603.09
2023-02-04T11:02:32.626Z,102609.47
2023-02-04T11:03:35.058Z,102601.22
2023-02-04T11:04:37.452Z,102600.91
2023-02-04T11:05:39.652Z,102600.03
2023-02-04T11:06:42.327Z,102602.34
2023-02-04T11:07:46.227Z,102601.44
2023-02-04T11:08:50.211Z,102607.56
2023-02-04T11:09:52.842Z,102596.00
2023-02-04T11:11:05.754Z,102597.84
2023-02-04T11:12:21.129Z,102599.56
2023-02-04T11:13:38.888Z,102604.06
2023-02-04T11:14:41.371Z,102597.03
2023-02-04T11:15:50.787Z,102601.78
2023-02-04T11:16:54.763Z,102601.66
2023-02-04T11:18:05.388Z,102599.03
2023-02-04T11:19:13.206Z,102596.66
2023-02-04T11:20:30.899Z,102599.59
2023-02-04T11:21:33.228Z,102605.16
2023-02-04T11:22:42.830Z,102606.06
2023-02-04T11:23:45.108Z,102601.72
2023-02-04T11:24:47.526Z,102599.09
2023-02-04T11:25:49.741Z,102607.03
2023-02-04T11:27:04.615Z,102600.16
2023-02-04T11:28:24.664Z,102610.38
2023-02-04T11:29:34.757Z,102612.41
2023-02-04T11:30:37.527Z,102617.59
2023-02-04T11:31:56.731Z,102610.44
2023-02-04T11:33:05.067Z,102610.69
2023-02-04T11:34:27.339Z,102616.06
2023-02-04T11:35:30.524Z,102616.94
2023-02-04T11:36:32.812Z,102616.88
2023-02-04T11:37:41.463Z,102621.03
2023-02-04T11:38:49.832Z,102624.47
2023-02-04T11:39:52.802Z,102626.97
2023-02-04T11:40:58.662Z,102625.06
2023-02-04T11:42:01.516Z,102632.91
2023-02-04T11:43:13.802Z,102628.72
2023-02-04T11:44:17.793Z,102631.44
2023-02-04T11:45:24.064Z,102631.94
2023-02-04T11:46:28.429Z,102625.81
2023-02-04T11:47:37.781Z,102631.34
2023-02-04T11:48:40.666Z,102623.44
2023-02-04T11:49:44.263Z,102626.59
2023-02-04T11:50:57.236Z,102625.16
2023-02-04T11:52:10.491Z,102628.69
2023-02-04T11:53:12.711Z,102636.56
2023-02-04T11:54:19.045Z,102629.69
2023-02-04T11:55:22.421Z,102633.13
2023-02-04T11:56:28.996Z,102629.81
2023-02-04T11:57:40.512Z,102628.22
2023-02-04T11:58:42.810Z,102620.25
2023-02-04T11:59:45.205Z,102627.25
2023-02-04T12:00:47.364Z,102631.66
2023-02-04T12:01:49.797Z,102623.56
2023-02-04T12:02:59.213Z,102639.19
2023-02-04T12:04:05.144Z,102634.88
2023-02-04T12:05:14.017Z,102625.56
2023-02-04T12:06:27.174Z,102633.66